createdAt,value
2019-03-24T00:03:09.932Z,64.8
2019-03-24T00:08:06.436Z,64.2
2019-03-24T00:13:03.117Z,65.7
2019-03-24T00:17:59.059Z,68.7
2019-03-24T00:22:56.029Z,68
2019-03-24T00:27:52.588Z,67.1
2019-03-24T00:32:49.520Z,69.8
2019-03-24T00:37:45.828Z,70.3
2019-03-24T00:42:42.570Z,70.8
2019-03-24T00:47:39.239Z,70.9
2019-03-24T00:52:35.443Z,70.3
2019-03-24T00:57:32.164Z,71.2
2019-03-24T01:02:28.752Z,71.2
2019-03-24T01:07:25.446Z,71.8
2019-03-24T01:12:22.094Z,71.5
2019-03-24T01:17:18.759Z,71.1
2019-03-24T01:22:15.649Z,72.6
2019-03-24T01:27:12.233Z,71.7
2019-03-24T01:32:09.026Z,73.2
2019-03-24T01:37:05.654Z,73.6
2019-03-24T01:42:02.386Z,73.1
2019-03-24T01:46:58.679Z,74.6
2019-03-24T01:51:55.313Z,74.5
2019-03-24T01:56:52.182Z,74.3
2019-03-24T02:01:48.867Z,75.5
2019-03-24T02:06:45.506Z,74.3
2019-03-24T02:11:42.228Z,74
2019-03-24T02:16:39.156Z,76.6
2019-03-24T02:21:36.161Z,74.7
2019-03-24T02:26:33.253Z,74.6
2019-03-24T02:31:30.121Z,74.5
2019-03-24T02:36:26.330Z,74.6
2019-03-24T02:41:23.043Z,73.9
2019-03-24T02:46:25.284Z,73.9
2019-03-24T02:51:20.605Z,74.1
2019-03-24T02:56:17.225Z,74.2
2019-03-24T03:01:13.049Z,73.4
2019-03-24T03:06:09.455Z,74.4
2019-03-24T03:11:05.879Z,73.9
2019-03-24T03:16:02.392Z,74.5
2019-03-24T03:20:58.706Z,73.8
2019-03-24T03:25:54.794Z,75.1
2019-03-24T03:30:51.069Z,75.7
2019-03-24T03:35:47.664Z,76.7
2019-03-24T03:40:43.970Z,77.3
2019-03-24T03:45:40.125Z,78
2019-03-24T03:50:36.416Z,77.7
2019-03-24T03:55:32.846Z,78.4
2019-03-24T04:00:29.678Z,79.2
2019-03-24T04:05:25.958Z,78.3
2019-03-24T04:10:22.330Z,77.4
2019-03-24T04:15:18.790Z,78.4
2019-03-24T04:20:14.846Z,78.4
2019-03-24T04:25:11.483Z,77.3
2019-03-24T04:30:08.304Z,76.9
2019-03-24T04:35:05.226Z,77.3
2019-03-24T04:40:02.205Z,75.4
2019-03-24T04:44:58.760Z,76.3
2019-03-24T04:49:55.762Z,75
2019-03-24T04:54:52.388Z,74.1
2019-03-24T04:59:48.338Z,72.3
2019-03-24T05:04:45.344Z,72.5
2019-03-24T05:09:42.120Z,70.9
2019-03-24T05:14:39.894Z,60.7
2019-03-24T05:19:40.248Z,50.4
2019-03-24T05:24:41.215Z,51.6
2019-03-24T05:29:38.419Z,48.5
2019-03-24T05:34:36.622Z,43.4
2019-03-24T05:39:32.772Z,46.2
2019-03-24T05:44:28.647Z,46.4
2019-03-24T05:49:22.705Z,49.6
2019-03-24T05:54:19.813Z,52.5
2019-03-24T05:59:13.831Z,52.2
2019-03-24T06:04:12.616Z,51
2019-03-24T06:09:11.648Z,41
2019-03-24T06:14:10.370Z,39.4
2019-03-24T06:19:05.478Z,39.7
2019-03-24T06:24:02.807Z,40.1
2019-03-24T06:28:57.592Z,40.9
2019-03-24T06:33:53.208Z,44.2
2019-03-24T06:38:50.684Z,47
2019-03-24T06:43:46.154Z,48
2019-03-24T06:48:42.493Z,43.5
2019-03-24T06:53:38.838Z,48.8
2019-03-24T06:58:35.313Z,50.1
2019-03-24T07:03:33.017Z,51.6
2019-03-24T07:08:30.090Z,50
2019-03-24T07:13:26.660Z,49.1
2019-03-24T07:18:23.630Z,48.1
2019-03-24T07:23:17.990Z,51.5
2019-03-24T07:28:16.252Z,53.7
2019-03-24T07:33:12.491Z,50
2019-03-24T07:38:10.763Z,52.8
2019-03-24T07:43:08.038Z,47.4
2019-03-24T07:48:07.353Z,46
2019-03-24T07:53:03.174Z,47.5
2019-03-24T07:58:00.373Z,46.1
2019-03-24T08:02:57.182Z,42.6
2019-03-24T08:07:53.776Z,42.1
2019-03-24T08:12:50.794Z,41.1
2019-03-24T08:17:47.288Z,41.5
2019-03-24T08:22:43.838Z,40
2019-03-24T08:27:39.685Z,44.3
2019-03-24T08:32:35.466Z,39.3
2019-03-24T08:37:32.059Z,41
2019-03-24T08:42:30.121Z,38.6
2019-03-24T08:47:28.020Z,36.4
2019-03-24T08:52:25.323Z,36.7
2019-03-24T08:57:20.810Z,34.3
2019-03-24T09:02:16.253Z,37.1
2019-03-24T09:07:13.158Z,37.1
2019-03-24T09:12:09.501Z,36.1
2019-03-24T09:17:07.094Z,38
2019-03-24T09:22:03.050Z,34.8
2019-03-24T09:27:00.801Z,38.9
